Lubec, Maine
Current Conditions -  °F | °C
As of 3:43 PM on Thursday 23 Oct 2014 (Local Time) from CYSJ Reporting Station
Light Rain Light Rain  
Wind Chill: 50°   Ceiling: 1600
Heat Index: 50°   Visibility: 15mi
Dew Point: 48°   Wind: 16mph
Humidity: 94%   Direction: 50°NE
Pressure: 29.91"   Gusts: 25mph
Location:  44.86°N, 66.99°W
Report Text: CYSJ 231943Z 05014G22KT 15SM -RA OVC016 10/09 A2991 RMK SC8 CIG RAG SLP130
Loading
Personal Weather Stations






























Interactive Weather Map
Tropical Storm Tracking
New forecast layout! Learn more

10-Day Weather Forecast

Advertisements
Track Severe Weather on mobile